createdAt,value
2022-11-14T00:01:15.326Z,101563.00
2022-11-14T00:04:06.672Z,101557.59
2022-11-14T00:06:57.928Z,101552.03
2022-11-14T00:09:44.523Z,101538.41
2022-11-14T00:12:31.511Z,101538.00
2022-11-14T00:15:17.640Z,101536.69
2022-11-14T00:18:05.348Z,101537.84
2022-11-14T00:20:53.656Z,101526.47
2022-11-14T00:23:39.724Z,101535.34
2022-11-14T00:26:26.097Z,101531.25
2022-11-14T00:29:13.316Z,101533.09
2022-11-14T00:31:59.596Z,101530.63
2022-11-14T00:34:45.732Z,101536.81
2022-11-14T00:37:32.035Z,101531.84
2022-11-14T00:40:18.326Z,101524.00
2022-11-14T00:43:04.761Z,101521.09
2022-11-14T00:45:51.437Z,101522.56
2022-11-14T00:48:49.700Z,101522.97
2022-11-14T00:51:36.435Z,101522.78
2022-11-14T00:54:22.733Z,101523.19
2022-11-14T00:57:08.838Z,101526.22
2022-11-14T00:59:56.796Z,101522.31
2022-11-14T01:02:43.379Z,101512.41
2022-11-14T01:05:30.283Z,101515.94
2022-11-14T01:08:20.077Z,101515.53
2022-11-14T01:11:18.172Z,101516.34
2022-11-14T01:14:07.817Z,101515.53
2022-11-14T01:16:54.137Z,101526.06
2022-11-14T01:19:40.360Z,101521.72
2022-11-14T01:22:27.160Z,101510.56
2022-11-14T01:25:14.841Z,101515.50
2022-11-14T01:28:02.464Z,101508.28
2022-11-14T01:30:49.463Z,101506.66
2022-11-14T01:33:40.514Z,101506.41
2022-11-14T01:36:31.400Z,101516.97
2022-11-14T01:39:19.061Z,101511.38
2022-11-14T01:42:08.331Z,101507.69
2022-11-14T01:44:55.663Z,101501.09
2022-11-14T01:47:45.376Z,101501.09
2022-11-14T01:50:32.464Z,101493.03
2022-11-14T01:53:23.672Z,101504.59
2022-11-14T01:56:16.846Z,101509.75
2022-11-14T01:59:13.026Z,101508.94
2022-11-14T02:02:34.192Z,101504.59
2022-11-14T02:05:26.943Z,101494.88
2022-11-14T02:08:18.446Z,101491.81
2022-11-14T02:11:06.101Z,101480.66
2022-11-14T02:13:53.817Z,101478.25
2022-11-14T02:17:01.126Z,101482.56
2022-11-14T02:20:02.216Z,101469.75
2022-11-14T02:22:51.323Z,101472.81
2022-11-14T02:25:38.938Z,101469.28
2022-11-14T02:28:25.952Z,101457.34
2022-11-14T02:31:12.909Z,101454.47
2022-11-14T02:33:58.785Z,101456.94
2022-11-14T02:36:45.123Z,101449.88
2022-11-14T02:39:31.588Z,101438.28
2022-11-14T02:42:18.032Z,101438.50
2022-11-14T02:45:12.499Z,101433.13
2022-11-14T02:47:58.950Z,101429.41
2022-11-14T02:50:45.307Z,101430.44
2022-11-14T02:53:36.321Z,101431.88
2022-11-14T02:56:24.603Z,101425.88
2022-11-14T02:59:11.481Z,101424.22
2022-11-14T03:01:58.614Z,101423.97
2022-11-14T03:04:45.304Z,101425.41
2022-11-14T03:07:33.008Z,101422.94
2022-11-14T03:10:19.789Z,101421.31
2022-11-14T03:13:07.938Z,101418.00
2022-11-14T03:15:54.447Z,101417.34
2022-11-14T03:18:42.635Z,101415.75
2022-11-14T03:21:28.798Z,101403.34
2022-11-14T03:24:14.809Z,101405.41
2022-11-14T03:27:02.349Z,101404.59
2022-11-14T03:29:49.847Z,101407.72
2022-11-14T03:32:44.413Z,101390.34
2022-11-14T03:35:30.777Z,101396.75
2022-11-14T03:38:18.271Z,101403.75
2022-11-14T03:41:05.386Z,101398.59
2022-11-14T03:43:51.952Z,101400.69
2022-11-14T03:46:38.291Z,101397.75
2022-11-14T03:49:30.524Z,101402.50
2022-11-14T03:52:17.366Z,101401.25
2022-11-14T03:55:03.791Z,101391.56
2022-11-14T03:57:50.252Z,101401.09
2022-11-14T04:00:37.315Z,101392.38
2022-11-14T04:03:25.586Z,101385.94
2022-11-14T04:06:12.245Z,101390.88
2022-11-14T04:08:58.612Z,101382.63
2022-11-14T04:11:45.037Z,101382.47
2022-11-14T04:14:32.183Z,101393.81
2022-11-14T04:17:20.904Z,101391.13
2022-11-14T04:20:09.206Z,101387.41
2022-11-14T04:22:56.696Z,101380.59
2022-11-14T04:25:47.482Z,101384.09
2022-11-14T04:28:41.575Z,101384.09
2022-11-14T04:31:28.669Z,101384.75
2022-11-14T04:34:16.750Z,101386.16
2022-11-14T04:37:03.403Z,101382.84
2022-11-14T04:39:49.782Z,101378.09
2022-11-14T04:42:36.127Z,101383.03
2022-11-14T04:45:25.954Z,101382.44
2022-11-14T04:48:15.888Z,101390.19
2022-11-14T04:51:02.775Z,101387.13
2022-11-14T04:53:49.710Z,101382.16
2022-11-14T04:56:36.211Z,101383.81
2022-11-14T04:59:22.181Z,101377.63
2022-11-14T05:02:08.834Z,101380.50
2022-11-14T05:04:55.387Z,101377.38
2022-11-14T05:07:49.724Z,101372.44
2022-11-14T05:10:36.278Z,101379.22
2022-11-14T05:13:22.520Z,101377.16
2022-11-14T05:16:08.695Z,101385.63
2022-11-14T05:18:58.061Z,101384.19
2022-11-14T05:21:44.547Z,101386.47
2022-11-14T05:24:30.977Z,101381.53
2022-11-14T05:27:17.932Z,101389.38
2022-11-14T05:30:05.432Z,101392.47
2022-11-14T05:32:55.504Z,101391.63
2022-11-14T05:35:41.922Z,101396.56
2022-11-14T05:38:31.823Z,101398.41
2022-11-14T05:41:22.344Z,101404.41
2022-11-14T05:44:08.695Z,101405.03
2022-11-14T05:46:55.272Z,101410.19
2022-11-14T05:49:41.969Z,101411.97
2022-11-14T05:52:28.507Z,101409.06
2022-11-14T05:55:18.307Z,101405.53
2022-11-14T05:58:06.734Z,101399.97
2022-11-14T06:00:54.553Z,101393.59
2022-11-14T06:03:44.827Z,101398.75
2022-11-14T06:06:31.644Z,101389.25
2022-11-14T06:09:17.749Z,101394.06
2022-11-14T06:12:06.943Z,101395.47
2022-11-14T06:14:53.283Z,101395.84
2022-11-14T06:17:39.611Z,101405.75
2022-11-14T06:20:26.309Z,101414.00
2022-11-14T06:23:13.275Z,101405.34
2022-11-14T06:26:03.530Z,101409.28
2022-11-14T06:28:51.402Z,101406.41
2022-11-14T06:31:37.615Z,101405.84
2022-11-14T06:34:24.545Z,101407.09
2022-11-14T06:37:12.992Z,101407.53
2022-11-14T06:39:59.636Z,101407.16
2022-11-14T06:42:46.372Z,101398.91
2022-11-14T06:45:32.683Z,101396.81
2022-11-14T06:48:19.270Z,101397.69
2022-11-14T06:51:06.549Z,101396.38
2022-11-14T06:53:52.461Z,101393.13
2022-11-14T06:56:38.622Z,101392.69
2022-11-14T06:59:27.313Z,101392.69
2022-11-14T07:02:20.495Z,101398.53
2022-11-14T07:05:08.320Z,101403.31
2022-11-14T07:07:54.521Z,101411.00
2022-11-14T07:10:41.541Z,101410.81
2022-11-14T07:13:27.683Z,101406.50
2022-11-14T07:16:13.927Z,101417.84
2022-11-14T07:19:01.066Z,101427.56
2022-11-14T07:21:50.596Z,101441.09
2022-11-14T07:24:37.209Z,101444.19
2022-11-14T07:27:23.970Z,101443.94
2022-11-14T07:30:11.850Z,101444.72
2022-11-14T07:32:59.888Z,101442.41
2022-11-14T07:35:47.128Z,101445.94
2022-11-14T07:38:34.793Z,101449.03
2022-11-14T07:41:22.283Z,101454.19
2022-11-14T07:44:09.028Z,101455.59
2022-11-14T07:46:55.145Z,101458.50
2022-11-14T07:49:47.087Z,101456.31
2022-11-14T07:52:33.952Z,101448.75
2022-11-14T07:55:21.346Z,101443.00
2022-11-14T07:58:07.315Z,101435.81
2022-11-14T08:00:53.444Z,101441.41
2022-11-14T08:03:45.121Z,101444.09
2022-11-14T08:06:31.987Z,101445.81
2022-11-14T08:09:18.043Z,101458.38
2022-11-14T08:12:04.343Z,101462.94
2022-11-14T08:14:50.883Z,101460.03
2022-11-14T08:17:37.362Z,101464.00
2022-11-14T08:20:23.399Z,101467.28
2022-11-14T08:23:11.844Z,101470.22
2022-11-14T08:26:00.253Z,101470.47
2022-11-14T08:28:45.798Z,101471.94
2022-11-14T08:31:32.365Z,101479.16
2022-11-14T08:34:18.438Z,101475.88
2022-11-14T08:37:05.366Z,101473.75
2022-11-14T08:39:52.098Z,101472.78
2022-11-14T08:42:38.367Z,101476.28
2022-11-14T08:45:24.544Z,101477.13
2022-11-14T08:48:13.421Z,101479.69
2022-11-14T08:51:04.815Z,101488.38
2022-11-14T08:53:52.988Z,101479.91
2022-11-14T08:56:38.963Z,101486.38
2022-11-14T08:59:24.300Z,101477.31
2022-11-14T09:02:14.684Z,101477.38
2022-11-14T09:05:01.238Z,101471.38
2022-11-14T09:07:46.811Z,101473.50
2022-11-14T09:10:33.291Z,101470.41
2022-11-14T09:13:19.444Z,101473.06
2022-11-14T09:16:05.605Z,101471.28
2022-11-14T09:18:51.244Z,101472.50
2022-11-14T09:21:37.192Z,101470.63
2022-11-14T09:24:23.003Z,101470.63
2022-11-14T09:27:09.223Z,101467.53
2022-11-14T09:29:55.089Z,101465.06
2022-11-14T09:32:41.067Z,101464.84
2022-11-14T09:35:26.912Z,101466.47
2022-11-14T09:38:13.065Z,101464.38
2022-11-14T09:41:22.921Z,101468.25
2022-11-14T09:44:27.160Z,101472.19
2022-11-14T09:47:20.988Z,101473.75
2022-11-14T09:50:30.869Z,101469.72
2022-11-14T09:53:27.396Z,101462.81
2022-11-14T09:56:24.034Z,101466.22
2022-11-14T09:59:13.031Z,101475.06
2022-11-14T10:02:02.657Z,101475.00
2022-11-14T10:04:56.078Z,101473.28
2022-11-14T10:08:25.040Z,101474.97
2022-11-14T10:11:17.181Z,101479.28
2022-11-14T10:14:37.850Z,101470.91
2022-11-14T10:17:30.238Z,101472.09
2022-11-14T10:20:42.768Z,101466.34
2022-11-14T10:23:38.303Z,101466.66
2022-11-14T10:26:32.461Z,101465.94
2022-11-14T10:29:52.395Z,101464.44
2022-11-14T10:32:38.264Z,101450.06
2022-11-14T10:35:48.601Z,101448.94
2022-11-14T10:38:44.970Z,101453.19
2022-11-14T10:44:51.376Z,101441.66
2022-11-14T10:47:41.400Z,101438.56
2022-11-14T10:50:42.901Z,101449.88
2022-11-14T10:53:32.150Z,101440.78
2022-11-14T10:56:18.366Z,101443.81
2022-11-14T10:59:04.903Z,101434.59
2022-11-14T11:01:59.038Z,101426.44
2022-11-14T11:04:46.036Z,101432.94
2022-11-14T11:07:50.560Z,101425.34
2022-11-14T11:11:00.456Z,101419.41
2022-11-14T11:14:04.884Z,101424.88
2022-11-14T11:17:07.943Z,101422.31
2022-11-14T11:19:54.043Z,101413.03
2022-11-14T11:22:40.338Z,101413.84
2022-11-14T11:25:35.219Z,101413.44
2022-11-14T11:28:23.202Z,101415.00
2022-11-14T11:31:12.774Z,101400.22
2022-11-14T11:34:04.768Z,101406.44
2022-11-14T11:37:04.689Z,101396.78
2022-11-14T11:39:58.387Z,101401.25
2022-11-14T11:43:37.292Z,101392.44
2022-11-14T11:46:49.430Z,101386.00
2022-11-14T11:49:53.331Z,101381.06
2022-11-14T11:53:14.383Z,101371.06
2022-11-14T11:56:08.948Z,101372.34
2022-11-14T11:59:04.606Z,101369.44
2022-11-14T12:01:52.525Z,101360.72
2022-11-14T12:04:38.499Z,101350.59
2022-11-14T12:07:55.347Z,101347.66
2022-11-14T12:10:42.269Z,101347.88
2022-11-14T12:14:10.613Z,101354.34
2022-11-14T12:17:09.684Z,101348.47
2022-11-14T12:20:04.975Z,101346.47
2022-11-14T12:23:20.004Z,101348.47
2022-11-14T12:26:25.129Z,101348.59
2022-11-14T12:29:38.584Z,101333.31
2022-11-14T12:32:41.573Z,101345.91
2022-11-14T12:35:39.665Z,101345.91
2022-11-14T12:38:32.099Z,101337.31
2022-11-14T12:41:28.079Z,101333.06
2022-11-14T12:44:31.608Z,101326.00
2022-11-14T12:47:30.570Z,101319.50
2022-11-14T12:50:39.989Z,101324.09
2022-11-14T12:53:37.897Z,101319.84
2022-11-14T12:56:33.515Z,101324.78
2022-11-14T12:59:58.829Z,101319.13
2022-11-14T13:03:35.587Z,101317.09
2022-11-14T13:06:39.994Z,101311.00
2022-11-14T13:09:40.486Z,101308.22
2022-11-14T13:12:45.079Z,101304.09
2022-11-14T13:15:52.240Z,101299.31
2022-11-14T13:19:35.337Z,101305.31
2022-11-14T13:22:39.410Z,101288.84
2022-11-14T13:25:26.124Z,101285.56
2022-11-14T13:28:47.134Z,101279.44
2022-11-14T13:31:37.725Z,101267.22
2022-11-14T13:34:33.586Z,101260.28
2022-11-14T13:37:54.742Z,101260.88
2022-11-14T13:41:07.383Z,101253.56
2022-11-14T13:44:11.988Z,101254.75
2022-11-14T13:47:18.998Z,101246.16
2022-11-14T13:50:07.071Z,101242.75
2022-11-14T13:52:53.650Z,101240.06
2022-11-14T13:55:51.626Z,101242.03
2022-11-14T13:58:37.714Z,101242.88
2022-11-14T14:01:36.954Z,101247.56
2022-11-14T14:04:51.942Z,101239.94
2022-11-14T14:07:56.737Z,101233.00
2022-11-14T14:10:50.994Z,101239.44
2022-11-14T14:13:55.593Z,101240.50
2022-11-14T14:17:10.193Z,101241.69
2022-11-14T14:20:02.097Z,101241.91
2022-11-14T14:23:17.563Z,101238.63
2022-11-14T14:26:30.547Z,101234.97
2022-11-14T14:29:28.669Z,101231.81
2022-11-14T14:32:17.694Z,101233.44
2022-11-14T14:35:28.841Z,101226.50
2022-11-14T14:38:28.477Z,101230.84
2022-11-14T14:41:17.241Z,101229.81
2022-11-14T14:44:04.891Z,101233.09
2022-11-14T14:46:51.579Z,101228.16
2022-11-14T14:49:42.082Z,101233.00
2022-11-14T14:52:38.062Z,101237.56
2022-11-14T14:55:29.960Z,101236.63
2022-11-14T14:58:28.923Z,101230.50
2022-11-14T15:01:18.199Z,101230.41
2022-11-14T15:04:16.056Z,101226.88
2022-11-14T15:07:02.449Z,101231.59
2022-11-14T15:10:06.329Z,101237.22
2022-11-14T15:12:53.990Z,101238.41
2022-11-14T15:15:40.025Z,101244.53
2022-11-14T15:18:29.804Z,101246.66
2022-11-14T15:21:25.321Z,101239.91
2022-11-14T15:24:22.297Z,101243.53
2022-11-14T15:27:20.511Z,101243.78
2022-11-14T15:30:20.075Z,101248.72
2022-11-14T15:33:27.560Z,101245.22
2022-11-14T15:36:20.341Z,101249.44
2022-11-14T15:39:30.741Z,101261.16
2022-11-14T15:42:26.953Z,101256.31
2022-11-14T15:45:30.112Z,101252.66
2022-11-14T15:48:19.870Z,101252.44
2022-11-14T15:51:05.897Z,101258.44
2022-11-14T15:53:53.792Z,101261.72
2022-11-14T15:56:39.905Z,101258.69
2022-11-14T15:59:36.649Z,101259.13
2022-11-14T16:02:36.993Z,101255.97
2022-11-14T16:05:30.825Z,101252.91
2022-11-14T16:08:30.143Z,101252.91
2022-11-14T16:11:25.930Z,101250.44
2022-11-14T16:14:24.924Z,101251.72
2022-11-14T16:17:26.359Z,101252.19
2022-11-14T16:20:29.654Z,101253.47
2022-11-14T16:23:34.858Z,101257.44
2022-11-14T16:26:31.675Z,101260.63
2022-11-14T16:29:28.417Z,101262.94
2022-11-14T16:32:17.475Z,101268.81
2022-11-14T16:35:04.836Z,101256.59
2022-11-14T16:37:56.304Z,101252.25
2022-11-14T16:40:47.746Z,101265.16
2022-11-14T16:43:40.452Z,101261.84
2022-11-14T16:46:34.390Z,101264.41
2022-11-14T16:49:36.187Z,101268.63
2022-11-14T16:52:32.105Z,101261.66
2022-11-14T16:55:32.607Z,101272.53
2022-11-14T16:58:32.811Z,101266.84
2022-11-14T17:01:22.942Z,101281.16
2022-11-14T17:04:15.562Z,101282.00
2022-11-14T17:07:22.777Z,101289.72
2022-11-14T17:10:16.659Z,101289.78
2022-11-14T17:13:24.183Z,101297.06
2022-11-14T17:16:20.089Z,101302.69
2022-11-14T17:19:13.545Z,101300.00
2022-11-14T17:22:06.036Z,101303.75
2022-11-14T17:24:59.356Z,101289.44
2022-11-14T17:27:51.124Z,101291.75
2022-11-14T17:30:57.518Z,101296.75
2022-11-14T17:33:54.517Z,101297.00
2022-11-14T17:36:42.397Z,101299.09
2022-11-14T17:39:44.975Z,101300.13
2022-11-14T17:42:37.318Z,101314.66
2022-11-14T17:45:27.303Z,101306.00
2022-11-14T17:48:18.313Z,101313.19
2022-11-14T17:51:13.141Z,101306.44
2022-11-14T17:54:14.522Z,101309.91
2022-11-14T17:57:01.483Z,101311.38
2022-11-14T17:59:50.394Z,101321.56
2022-11-14T18:02:36.300Z,101320.28
2022-11-14T18:05:24.145Z,101318.22
2022-11-14T18:08:10.420Z,101322.19
2022-11-14T18:11:03.071Z,101319.25
2022-11-14T18:13:49.394Z,101328.16
2022-11-14T18:17:10.504Z,101324.03
2022-11-14T18:19:49.757Z,101320.53
2022-11-14T18:22:43.328Z,101319.09
2022-11-14T18:25:31.878Z,101318.88
2022-11-14T18:28:23.694Z,101321.56
2022-11-14T18:31:11.428Z,101318.28
2022-11-14T18:33:58.339Z,101321.56
2022-11-14T18:36:48.101Z,101320.53
2022-11-14T18:39:36.651Z,101314.53
2022-11-14T18:42:25.856Z,101316.16
2022-11-14T18:45:12.023Z,101313.47
2022-11-14T18:47:58.221Z,101312.50
2022-11-14T18:50:44.819Z,101313.91
2022-11-14T18:53:33.113Z,101306.50
2022-11-14T18:56:28.101Z,101307.94
2022-11-14T18:59:14.586Z,101309.78
2022-11-14T19:02:01.069Z,101305.06
2022-11-14T19:04:47.397Z,101308.38
2022-11-14T19:07:33.277Z,101299.69
2022-11-14T19:10:22.163Z,101292.41
2022-11-14T19:13:09.371Z,101287.25
2022-11-14T19:16:07.380Z,101282.31
2022-11-14T19:18:53.619Z,101289.94
2022-11-14T19:21:40.435Z,101296.16
2022-11-14T19:24:27.282Z,101299.69
2022-11-14T19:27:16.683Z,101297.00
2022-11-14T19:30:03.686Z,101297.56
2022-11-14T19:32:58.791Z,101302.16
2022-11-14T19:35:45.409Z,101306.34
2022-11-14T19:38:32.058Z,101306.13
2022-11-14T19:41:34.534Z,101310.31
2022-11-14T19:44:30.780Z,101302.66
2022-11-14T19:47:31.831Z,101307.84
2022-11-14T19:50:18.660Z,101313.47
2022-11-14T19:53:04.464Z,101316.16
2022-11-14T19:55:50.464Z,101313.47
2022-11-14T19:58:38.374Z,101317.41
2022-11-14T20:01:32.040Z,101314.91
2022-11-14T20:04:19.302Z,101312.22
2022-11-14T20:07:05.724Z,101315.16
2022-11-14T20:09:52.035Z,101315.72
2022-11-14T20:12:38.940Z,101319.09
2022-11-14T20:15:24.990Z,101317.81
2022-11-14T20:18:10.621Z,101323.41
2022-11-14T20:20:58.835Z,101312.63
2022-11-14T20:23:58.018Z,101326.72
2022-11-14T20:26:45.814Z,101326.31
2022-11-14T20:29:32.157Z,101323.63
2022-11-14T20:32:19.982Z,101321.78
2022-11-14T20:35:06.703Z,101314.28
2022-11-14T20:37:52.807Z,101311.41
2022-11-14T20:40:42.220Z,101318.44
2022-11-14T20:43:30.224Z,101316.56
2022-11-14T20:46:22.062Z,101310.34
2022-11-14T20:49:08.085Z,101313.25
2022-11-14T20:51:54.005Z,101314.31
2022-11-14T20:54:40.079Z,101313.25
2022-11-14T20:57:26.130Z,101315.38
2022-11-14T21:00:12.928Z,101311.00
2022-11-14T21:02:58.912Z,101305.00
2022-11-14T21:05:45.694Z,101302.53
2022-11-14T21:08:35.494Z,101300.06
2022-11-14T21:11:22.680Z,101302.41
2022-11-14T21:14:12.617Z,101297.19
2022-11-14T21:16:58.620Z,101293.69
2022-11-14T21:19:44.512Z,101302.00
2022-11-14T21:22:31.801Z,101298.69
2022-11-14T21:25:17.658Z,101301.38
2022-11-14T21:28:03.248Z,101297.50
2022-11-14T21:30:49.495Z,101305.59
2022-11-14T21:33:35.245Z,101288.81
2022-11-14T21:39:27.878Z,101281.63
2022-11-14T21:42:18.197Z,101285.78
2022-11-14T21:45:05.558Z,101282.94
2022-11-14T21:47:55.089Z,101280.06
2022-11-14T21:50:42.158Z,101283.59
2022-11-14T21:53:29.393Z,101279.69
2022-11-14T21:56:24.744Z,101279.28
2022-11-14T21:59:18.705Z,101270.66
2022-11-14T22:02:23.496Z,101276.25
2022-11-14T22:05:11.539Z,101269.06
2022-11-14T22:07:58.045Z,101272.63
2022-11-14T22:10:43.665Z,101274.03
2022-11-14T22:13:34.386Z,101273.66
2022-11-14T22:16:23.160Z,101269.53
2022-11-14T22:19:09.153Z,101268.72
2022-11-14T22:21:55.268Z,101266.63
2022-11-14T22:24:42.921Z,101261.03
2022-11-14T22:27:28.788Z,101261.63
2022-11-14T22:30:22.751Z,101270.97
2022-11-14T22:33:08.573Z,101276.38
2022-11-14T22:35:54.674Z,101273.88
2022-11-14T22:39:18.006Z,101273.88
2022-11-14T22:42:09.279Z,101271.19
2022-11-14T22:44:56.546Z,101269.31
2022-11-14T22:47:42.882Z,101255.84
2022-11-14T22:50:29.665Z,101260.19
2022-11-14T22:53:16.182Z,101259.38
2022-11-14T22:56:03.182Z,101254.19
2022-11-14T22:58:49.599Z,101250.69
2022-11-14T23:01:35.756Z,101248.00
2022-11-14T23:04:21.869Z,101244.91
2022-11-14T23:07:07.879Z,101240.78
2022-11-14T23:09:53.453Z,101234.97
2022-11-14T23:12:39.637Z,101229.81
2022-11-14T23:15:25.743Z,101235.38
2022-11-14T23:18:12.080Z,101226.09
2022-11-14T23:21:04.224Z,101227.94
2022-11-14T23:23:58.952Z,101231.66
2022-11-14T23:26:45.563Z,101222.78
2022-11-14T23:29:31.888Z,101224.66
2022-11-14T23:32:18.057Z,101221.16
2022-11-14T23:35:03.967Z,101215.63
2022-11-14T23:37:49.851Z,101216.22
2022-11-14T23:40:36.768Z,101217.06
2022-11-14T23:43:23.254Z,101215.41
2022-11-14T23:46:09.143Z,101209.41
2022-11-14T23:48:55.592Z,101206.16
2022-11-14T23:51:42.849Z,101208.25
2022-11-14T23:54:28.567Z,101207.88
2022-11-14T23:57:20.639Z,101195.91
